RYR84KK LEAM-EBCI
Flight info
| Callsign | RYR84KK |
|---|---|
| Flight time | N/A |
| Altitude | 38000 |
| Route | AGIDO M192 ARPEX DCT BAZAS M192 BLN N865 VTB N867 RBO DCT OSTIX N867 DGO L176 LUSEM/N0425F340 DCT LULUT DCT ADABI DCT BOKNO UN858 VANAD UN874 BAMES UT191 PODEM UN873 BAZOS DCT BELDI DCT VEKIN Z173 ARVOL |
| Aircraft | B738/M-SDE3FGILRWY/SB1 |
Departure
| Time | 2026-05-08 08:05 |
|---|---|
| Airport | Almería Airport (LEAM) |
Arrival
| Time | N/A |
|---|---|
| Airport | Brussels South Charleroi Airport (EBCI) |
| Time | Latitude | Longitude | Altitude | Speed | Heading |
|---|---|---|---|---|---|
| 2026-05-08 07:47 | 36.84717 | -2.37003 | 62 ft | 0 kts | 118° |
| 2026-05-08 07:57 | 36.84716 | -2.36999 | 69 ft | 0 kts | 118° |
| 2026-05-08 07:59 | 36.84713 | -2.36993 | 68 ft | 2 kts | 122° |
| 2026-05-08 07:59 | 36.84694 | -2.36976 | 62 ft | 5 kts | 142° |
| 2026-05-08 08:00 | 36.84655 | -2.36938 | 66 ft | 9 kts | 142° |
| 2026-05-08 08:00 | 36.84611 | -2.36866 | 60 ft | 11 kts | 102° |
| 2026-05-08 08:00 | 36.84626 | -2.36775 | 57 ft | 11 kts | 73° |
| 2026-05-08 08:00 | 36.84647 | -2.36689 | 64 ft | 10 kts | 73° |
| 2026-05-08 08:01 | 36.84668 | -2.36604 | 65 ft | 10 kts | 73° |
| 2026-05-08 08:01 | 36.84693 | -2.36501 | 64 ft | 14 kts | 73° |
| 2026-05-08 08:01 | 36.84722 | -2.36385 | 65 ft | 14 kts | 72° |
| 2026-05-08 08:01 | 36.84751 | -2.36271 | 64 ft | 13 kts | 72° |
| 2026-05-08 08:02 | 36.84776 | -2.36162 | 61 ft | 13 kts | 74° |
| 2026-05-08 08:02 | 36.84802 | -2.36056 | 62 ft | 13 kts | 72° |
| 2026-05-08 08:02 | 36.84828 | -2.35953 | 58 ft | 13 kts | 72° |
| 2026-05-08 08:02 | 36.84855 | -2.35845 | 57 ft | 13 kts | 72° |
| 2026-05-08 08:03 | 36.84882 | -2.35741 | 63 ft | 12 kts | 72° |
| 2026-05-08 08:03 | 36.84908 | -2.35640 | 64 ft | 12 kts | 72° |
| 2026-05-08 08:03 | 36.84932 | -2.35540 | 62 ft | 12 kts | 73° |
| 2026-05-08 08:03 | 36.84955 | -2.35442 | 64 ft | 12 kts | 76° |
| 2026-05-08 08:04 | 36.84930 | -2.35353 | 62 ft | 12 kts | 136° |
| 2026-05-08 08:04 | 36.84842 | -2.35327 | 57 ft | 14 kts | 189° |
| 2026-05-08 08:04 | 36.84796 | -2.35378 | 61 ft | 10 kts | 246° |
| 2026-05-08 08:04 | 36.84745 | -2.35585 | 60 ft | 55 kts | 253° |
| 2026-05-08 08:05 | 36.84565 | -2.36318 | 57 ft | 119 kts | 253° |
| 2026-05-08 08:05 | 36.84268 | -2.37524 | 84 ft | 168 kts | 252° |
| 2026-05-08 08:05 | 36.83947 | -2.38921 | 751 ft | 165 kts | 255° |
| 2026-05-08 08:05 | 36.83627 | -2.40351 | 1309 ft | 178 kts | 254° |
| 2026-05-08 08:06 | 36.83259 | -2.41962 | 1584 ft | 207 kts | 254° |
| 2026-05-08 08:06 | 36.82844 | -2.43772 | 1788 ft | 227 kts | 253° |
| 2026-05-08 08:06 | 36.82391 | -2.45735 | 2052 ft | 241 kts | 253° |
| 2026-05-08 08:06 | 36.81920 | -2.47769 | 2467 ft | 246 kts | 253° |
| 2026-05-08 08:07 | 36.81433 | -2.49872 | 2736 ft | 261 kts | 253° |
| 2026-05-08 08:07 | 36.80919 | -2.52085 | 3231 ft | 269 kts | 253° |
| 2026-05-08 08:07 | 36.80396 | -2.54330 | 3994 ft | 269 kts | 253° |
| 2026-05-08 08:07 | 36.79879 | -2.56549 | 4861 ft | 266 kts | 252° |
| 2026-05-08 08:08 | 36.79665 | -2.58824 | 5592 ft | 268 kts | 280° |
| 2026-05-08 08:08 | 36.80520 | -2.60866 | 6396 ft | 271 kts | 315° |
| 2026-05-08 08:08 | 36.82184 | -2.61965 | 7078 ft | 279 kts | 347° |
| 2026-05-08 08:08 | 36.84151 | -2.61997 | 7700 ft | 290 kts | 7° |
| 2026-05-08 08:09 | 36.86137 | -2.61383 | 8340 ft | 297 kts | 12° |
| 2026-05-08 08:09 | 36.88174 | -2.60787 | 8972 ft | 304 kts | 8° |
| 2026-05-08 08:09 | 36.90263 | -2.60198 | 9661 ft | 310 kts | 11° |
| 2026-05-08 08:09 | 36.92362 | -2.59440 | 10295 ft | 320 kts | 15° |
| 2026-05-08 08:10 | 36.94503 | -2.58457 | 10510 ft | 345 kts | 20° |
| 2026-05-08 08:10 | 36.96743 | -2.57142 | 10916 ft | 363 kts | 25° |
| 2026-05-08 08:10 | 36.98955 | -2.55517 | 11459 ft | 374 kts | 31° |
| 2026-05-08 08:10 | 37.01079 | -2.53597 | 12158 ft | 379 kts | 37° |
| 2026-05-08 08:11 | 37.03074 | -2.51414 | 12934 ft | 383 kts | 42° |
| 2026-05-08 08:11 | 37.05235 | -2.49449 | 13633 ft | 387 kts | 20° |
| 2026-05-08 08:11 | 37.07835 | -2.48766 | 14332 ft | 380 kts | 353° |
| 2026-05-08 08:11 | 37.10333 | -2.49515 | 15096 ft | 364 kts | 326° |
| 2026-05-08 08:12 | 37.12235 | -2.51457 | 15841 ft | 348 kts | 299° |
| 2026-05-08 08:12 | 37.13276 | -2.54119 | 16591 ft | 339 kts | 285° |
| 2026-05-08 08:12 | 37.14348 | -2.56796 | 17249 ft | 353 kts | 299° |
| 2026-05-08 08:12 | 37.16011 | -2.59131 | 17957 ft | 365 kts | 310° |
| 2026-05-08 08:13 | 37.17967 | -2.61215 | 18617 ft | 372 kts | 315° |
| 2026-05-08 08:13 | 37.20017 | -2.63214 | 19267 ft | 375 kts | 315° |
| 2026-05-08 08:13 | 37.22072 | -2.65247 | 19891 ft | 378 kts | 314° |
| 2026-05-08 08:13 | 37.24126 | -2.67339 | 20454 ft | 382 kts | 313° |
| 2026-05-08 08:14 | 37.26164 | -2.69435 | 21363 ft | 376 kts | 313° |
| 2026-05-08 08:14 | 37.28196 | -2.71534 | 21954 ft | 380 kts | 312° |
| 2026-05-08 08:14 | 37.30259 | -2.73671 | 22421 ft | 387 kts | 312° |
| 2026-05-08 08:14 | 37.32347 | -2.75834 | 22949 ft | 391 kts | 312° |
| 2026-05-08 08:15 | 37.34461 | -2.78019 | 23445 ft | 395 kts | 312° |
| 2026-05-08 08:15 | 37.36589 | -2.80216 | 23961 ft | 397 kts | 312° |
| 2026-05-08 08:15 | 37.38726 | -2.82424 | 24418 ft | 399 kts | 312° |
| 2026-05-08 08:15 | 37.40875 | -2.84648 | 24891 ft | 401 kts | 312° |
| 2026-05-08 08:16 | 37.43032 | -2.86881 | 25402 ft | 402 kts | 312° |
| 2026-05-08 08:16 | 37.45197 | -2.89121 | 25870 ft | 405 kts | 312° |
| 2026-05-08 08:16 | 37.47386 | -2.91389 | 26204 ft | 410 kts | 312° |
| 2026-05-08 08:16 | 37.49598 | -2.93683 | 26619 ft | 413 kts | 312° |
| 2026-05-08 08:17 | 37.51822 | -2.95986 | 27080 ft | 414 kts | 312° |
| 2026-05-08 08:17 | 37.54053 | -2.98299 | 27523 ft | 416 kts | 312° |
| 2026-05-08 08:17 | 37.56292 | -3.00624 | 27948 ft | 419 kts | 312° |
| 2026-05-08 08:17 | 37.58578 | -3.03001 | 28328 ft | 421 kts | 312° |
| 2026-05-08 08:18 | 37.60678 | -3.05191 | 28672 ft | 424 kts | 312° |
| 2026-05-08 08:18 | 37.62955 | -3.07568 | 29185 ft | 424 kts | 311° |
| 2026-05-08 08:18 | 37.65227 | -3.09941 | 29664 ft | 424 kts | 311° |
| 2026-05-08 08:18 | 37.67504 | -3.12324 | 30022 ft | 427 kts | 311° |
| 2026-05-08 08:19 | 37.69807 | -3.14737 | 30210 ft | 433 kts | 312° |
| 2026-05-08 08:19 | 37.72136 | -3.17178 | 30423 ft | 437 kts | 312° |
| 2026-05-08 08:19 | 37.74477 | -3.19629 | 30735 ft | 438 kts | 312° |
| 2026-05-08 08:19 | 37.76830 | -3.22084 | 31038 ft | 440 kts | 312° |
| 2026-05-08 08:20 | 37.79197 | -3.24554 | 31278 ft | 442 kts | 312° |
| 2026-05-08 08:20 | 37.81577 | -3.27038 | 31514 ft | 445 kts | 312° |
| 2026-05-08 08:20 | 37.83970 | -3.29539 | 31783 ft | 447 kts | 312° |
| 2026-05-08 08:20 | 37.86363 | -3.32041 | 32143 ft | 446 kts | 312° |
| 2026-05-08 08:21 | 37.88754 | -3.34542 | 32536 ft | 445 kts | 312° |
| 2026-05-08 08:21 | 37.91141 | -3.37042 | 32902 ft | 445 kts | 312° |
| 2026-05-08 08:21 | 37.93536 | -3.39557 | 33055 ft | 450 kts | 313° |
| 2026-05-08 08:21 | 37.95955 | -3.42101 | 33247 ft | 453 kts | 313° |
| 2026-05-08 08:22 | 37.98379 | -3.44648 | 33746 ft | 449 kts | 313° |
| 2026-05-08 08:22 | 38.00763 | -3.47149 | 34319 ft | 442 kts | 313° |
| 2026-05-08 08:22 | 38.03125 | -3.49634 | 34596 ft | 442 kts | 312° |
| 2026-05-08 08:22 | 38.05496 | -3.52139 | 34760 ft | 445 kts | 312° |
| 2026-05-08 08:23 | 38.07882 | -3.54660 | 34966 ft | 446 kts | 312° |
| 2026-05-08 08:23 | 38.10263 | -3.57173 | 35281 ft | 445 kts | 312° |
| 2026-05-08 08:23 | 38.12676 | -3.59626 | 35610 ft | 448 kts | 319° |
| 2026-05-08 08:23 | 38.15505 | -3.61441 | 35818 ft | 466 kts | 335° |
| 2026-05-08 08:24 | 38.18735 | -3.62279 | 35903 ft | 484 kts | 352° |
| 2026-05-08 08:24 | 38.22132 | -3.62114 | 36131 ft | 490 kts | 359° |
| 2026-05-08 08:24 | 38.25526 | -3.61729 | 36458 ft | 489 kts | 0° |
| 2026-05-08 08:24 | 38.28909 | -3.61317 | 36745 ft | 488 kts | 360° |
| 2026-05-08 08:25 | 38.32290 | -3.60918 | 36988 ft | 488 kts | 359° |
| 2026-05-08 08:25 | 38.35674 | -3.60543 | 37215 ft | 488 kts | 359° |
| 2026-05-08 08:25 | 38.39057 | -3.60191 | 37463 ft | 487 kts | 359° |
| 2026-05-08 08:25 | 38.42435 | -3.59853 | 37708 ft | 487 kts | 358° |
| 2026-05-08 08:26 | 38.45810 | -3.59525 | 37936 ft | 486 kts | 358° |
| 2026-05-08 08:26 | 38.52603 | -3.58871 | 37947 ft | 491 kts | 358° |
| 2026-05-08 08:27 | 38.59392 | -3.58208 | 37925 ft | 486 kts | 358° |
| 2026-05-08 08:27 | 38.64960 | -3.57657 | 37944 ft | 480 kts | 359° |
| 2026-05-08 08:28 | 38.71579 | -3.57005 | 37928 ft | 474 kts | 359° |
| 2026-05-08 08:28 | 38.78186 | -3.56358 | 37948 ft | 479 kts | 359° |
| 2026-05-08 08:29 | 38.84881 | -3.55702 | 37975 ft | 485 kts | 360° |
| 2026-05-08 08:29 | 38.91640 | -3.55031 | 37956 ft | 488 kts | 360° |
| 2026-05-08 08:30 | 38.98420 | -3.54357 | 37937 ft | 489 kts | 360° |
| 2026-05-08 08:30 | 39.08495 | -3.53357 | 37496 ft | 477 kts | 0° |
| 2026-05-08 08:31 | 39.11794 | -3.53032 | 37225 ft | 476 kts | 0° |
| 2026-05-08 08:31 | 39.15103 | -3.52707 | 37013 ft | 478 kts | 0° |
| 2026-05-08 08:31 | 39.21733 | -3.52054 | 36956 ft | 478 kts | 0° |
| 2026-05-08 08:32 | 39.28387 | -3.51395 | 36951 ft | 480 kts | 0° |
| 2026-05-08 08:32 | 39.35064 | -3.50732 | 36958 ft | 482 kts | 1° |
| 2026-05-08 08:33 | 39.41763 | -3.50064 | 36960 ft | 483 kts | 1° |
| 2026-05-08 08:33 | 39.48473 | -3.49393 | 36962 ft | 484 kts | 1° |
| 2026-05-08 08:34 | 39.55196 | -3.48721 | 36960 ft | 485 kts | 2° |
| 2026-05-08 08:34 | 39.61922 | -3.48045 | 36955 ft | 485 kts | 2° |
| 2026-05-08 08:35 | 39.68646 | -3.47362 | 36951 ft | 484 kts | 2° |
| 2026-05-08 08:35 | 39.75358 | -3.46679 | 36954 ft | 483 kts | 2° |
| 2026-05-08 08:36 | 39.82049 | -3.45776 | 36951 ft | 484 kts | 6° |
| 2026-05-08 08:36 | 39.88702 | -3.44410 | 36950 ft | 484 kts | 7° |
| 2026-05-08 08:37 | 39.95338 | -3.42994 | 36930 ft | 482 kts | 7° |
| 2026-05-08 08:37 | 40.01960 | -3.41632 | 36963 ft | 481 kts | 7° |
| 2026-05-08 08:38 | 40.08573 | -3.40303 | 36963 ft | 481 kts | 7° |
| 2026-05-08 08:38 | 40.15187 | -3.38978 | 36960 ft | 480 kts | 7° |
| 2026-05-08 08:39 | 40.21790 | -3.37650 | 36964 ft | 480 kts | 7° |
| 2026-05-08 08:39 | 40.28397 | -3.36317 | 36963 ft | 480 kts | 7° |
| 2026-05-08 08:40 | 40.34997 | -3.34983 | 36965 ft | 480 kts | 7° |
| 2026-05-08 08:40 | 40.41601 | -3.33644 | 36966 ft | 480 kts | 7° |
| 2026-05-08 08:41 | 40.48201 | -3.32305 | 36973 ft | 480 kts | 8° |
| 2026-05-08 08:41 | 40.54803 | -3.30961 | 36968 ft | 480 kts | 8° |
| 2026-05-08 08:42 | 40.61407 | -3.29615 | 36969 ft | 480 kts | 8° |
| 2026-05-08 08:42 | 40.68007 | -3.28267 | 36970 ft | 480 kts | 8° |
| 2026-05-08 08:43 | 40.74608 | -3.26916 | 36968 ft | 480 kts | 8° |
| 2026-05-08 08:43 | 40.81207 | -3.25562 | 36974 ft | 480 kts | 8° |
| 2026-05-08 08:44 | 40.87802 | -3.24193 | 36975 ft | 480 kts | 8° |
| 2026-05-08 08:44 | 40.94336 | -3.22729 | 36970 ft | 480 kts | 9° |
| 2026-05-08 08:45 | 41.00915 | -3.21229 | 36961 ft | 480 kts | 9° |
| 2026-05-08 08:45 | 41.07490 | -3.19739 | 36973 ft | 480 kts | 9° |
| 2026-05-08 08:46 | 41.14075 | -3.18253 | 36968 ft | 480 kts | 9° |
| 2026-05-08 08:46 | 41.20659 | -3.16765 | 36963 ft | 480 kts | 9° |
| 2026-05-08 08:47 | 41.27242 | -3.15274 | 36947 ft | 480 kts | 9° |
| 2026-05-08 08:47 | 41.33818 | -3.13781 | 36952 ft | 480 kts | 9° |
| 2026-05-08 08:48 | 41.40399 | -3.12283 | 36942 ft | 479 kts | 9° |
| 2026-05-08 08:48 | 41.46972 | -3.10784 | 36944 ft | 479 kts | 9° |
| 2026-05-08 08:49 | 41.53535 | -3.09289 | 36951 ft | 478 kts | 9° |
| 2026-05-08 08:49 | 41.60102 | -3.07805 | 36942 ft | 479 kts | 9° |
| 2026-05-08 08:50 | 41.66671 | -3.06317 | 36943 ft | 479 kts | 9° |
| 2026-05-08 08:50 | 41.73244 | -3.04823 | 36925 ft | 479 kts | 8° |
| 2026-05-08 08:51 | 41.79817 | -3.03317 | 36946 ft | 479 kts | 8° |
| 2026-05-08 08:51 | 41.86392 | -3.01803 | 36952 ft | 480 kts | 8° |
| 2026-05-08 08:52 | 41.92986 | -3.00281 | 36942 ft | 481 kts | 8° |
| 2026-05-08 08:52 | 41.99540 | -2.98766 | 36944 ft | 481 kts | 8° |
| 2026-05-08 08:53 | 42.06141 | -2.97237 | 36934 ft | 481 kts | 9° |
| 2026-05-08 08:53 | 42.12736 | -2.95707 | 36932 ft | 481 kts | 8° |
| 2026-05-08 08:54 | 42.19319 | -2.94175 | 36937 ft | 480 kts | 8° |
| 2026-05-08 08:54 | 42.25890 | -2.92644 | 36929 ft | 479 kts | 8° |
| 2026-05-08 08:55 | 42.32435 | -2.91115 | 36925 ft | 477 kts | 8° |
| 2026-05-08 08:55 | 42.38964 | -2.89587 | 36926 ft | 475 kts | 8° |
| 2026-05-08 08:56 | 42.45250 | -2.87035 | 36939 ft | 472 kts | 27° |
| 2026-05-08 08:56 | 42.50569 | -2.82040 | 36939 ft | 467 kts | 43° |
| 2026-05-08 08:57 | 42.55378 | -2.76131 | 36927 ft | 466 kts | 44° |
| 2026-05-08 08:57 | 42.60178 | -2.70215 | 36944 ft | 466 kts | 43° |
| 2026-05-08 08:58 | 42.65000 | -2.64347 | 36931 ft | 465 kts | 43° |
| 2026-05-08 08:58 | 42.69829 | -2.58495 | 36926 ft | 465 kts | 43° |
| 2026-05-08 08:59 | 42.74658 | -2.52634 | 36941 ft | 465 kts | 43° |
| 2026-05-08 08:59 | 42.79483 | -2.46761 | 36932 ft | 466 kts | 43° |
| 2026-05-08 09:00 | 42.84305 | -2.40877 | 36931 ft | 466 kts | 43° |
| 2026-05-08 09:00 | 42.89132 | -2.34974 | 36937 ft | 466 kts | 43° |
| 2026-05-08 09:01 | 42.93959 | -2.29058 | 36907 ft | 467 kts | 43° |
| 2026-05-08 09:01 | 42.98791 | -2.23124 | 36926 ft | 468 kts | 43° |
| 2026-05-08 09:02 | 43.03622 | -2.17157 | 36933 ft | 469 kts | 43° |
| 2026-05-08 09:02 | 43.08460 | -2.11165 | 36939 ft | 470 kts | 43° |
| 2026-05-08 09:03 | 43.13321 | -2.05140 | 36933 ft | 472 kts | 43° |
| 2026-05-08 09:03 | 43.18192 | -1.99094 | 36925 ft | 473 kts | 43° |
| 2026-05-08 09:04 | 43.23075 | -1.93019 | 36925 ft | 475 kts | 43° |
| 2026-05-08 09:04 | 43.27964 | -1.86922 | 36897 ft | 475 kts | 43° |
| 2026-05-08 09:05 | 43.33102 | -1.81267 | 36899 ft | 474 kts | 29° |
| 2026-05-08 09:05 | 43.38893 | -1.76962 | 36905 ft | 473 kts | 29° |
| 2026-05-08 09:06 | 43.44421 | -1.72155 | 36930 ft | 473 kts | 33° |
| 2026-05-08 09:06 | 43.49872 | -1.67063 | 36911 ft | 473 kts | 33° |
| 2026-05-08 09:07 | 43.55338 | -1.62009 | 36909 ft | 473 kts | 33° |
| 2026-05-08 09:07 | 43.60814 | -1.57015 | 36925 ft | 472 kts | 33° |
| 2026-05-08 09:08 | 43.66292 | -1.52037 | 36909 ft | 471 kts | 32° |
| 2026-05-08 09:08 | 43.71746 | -1.47071 | 36925 ft | 469 kts | 32° |
| 2026-05-08 09:09 | 43.77187 | -1.42103 | 36923 ft | 468 kts | 32° |
| 2026-05-08 09:09 | 43.82611 | -1.37138 | 36945 ft | 467 kts | 32° |
| 2026-05-08 09:10 | 43.88023 | -1.32171 | 36937 ft | 466 kts | 32° |
| 2026-05-08 09:10 | 43.93425 | -1.27204 | 36928 ft | 466 kts | 32° |
| 2026-05-08 09:11 | 43.98824 | -1.22228 | 36929 ft | 465 kts | 32° |
| 2026-05-08 09:11 | 44.04212 | -1.17251 | 36941 ft | 465 kts | 32° |
| 2026-05-08 09:12 | 44.09595 | -1.12267 | 36928 ft | 465 kts | 31° |
| 2026-05-08 09:12 | 44.14971 | -1.07280 | 36924 ft | 464 kts | 31° |
| 2026-05-08 09:13 | 44.20303 | -1.02321 | 36934 ft | 464 kts | 31° |
| 2026-05-08 09:13 | 44.25664 | -0.97325 | 36943 ft | 463 kts | 31° |
| 2026-05-08 09:14 | 44.31020 | -0.92321 | 36937 ft | 463 kts | 31° |
| 2026-05-08 09:14 | 44.36371 | -0.87313 | 36941 ft | 463 kts | 31° |
| 2026-05-08 09:15 | 44.40908 | -0.83259 | 36931 ft | 460 kts | 24° |
| 2026-05-08 09:15 | 44.46722 | -0.79618 | 36944 ft | 458 kts | 19° |
| 2026-05-08 09:16 | 44.52556 | -0.76193 | 36943 ft | 457 kts | 19° |
| 2026-05-08 09:16 | 44.58405 | -0.72697 | 36955 ft | 457 kts | 19° |
| 2026-05-08 09:17 | 44.64233 | -0.69146 | 36967 ft | 456 kts | 20° |
| 2026-05-08 09:17 | 44.70079 | -0.65553 | 36962 ft | 455 kts | 20° |
| 2026-05-08 09:18 | 44.75874 | -0.61981 | 36966 ft | 454 kts | 20° |
| 2026-05-08 09:18 | 44.81599 | -0.58446 | 36964 ft | 453 kts | 20° |
| 2026-05-08 09:19 | 44.87388 | -0.54866 | 36966 ft | 453 kts | 20° |
| 2026-05-08 09:19 | 44.93155 | -0.51292 | 36963 ft | 452 kts | 20° |